sensor_id;sensor_type;location;lat;lon;timestamp;P1;durP1;ratioP1;P2;durP2;ratioP2
5054;SDS011;13829;48.990;8.346;2023-08-06T00:01:54;3.03;;;2.73;;
5054;SDS011;13829;48.990;8.346;2023-08-06T00:04:21;4.87;;;3.00;;
5054;SDS011;13829;48.990;8.346;2023-08-06T00:06:48;4.30;;;3.23;;
5054;SDS011;13829;48.990;8.346;2023-08-06T00:09:15;4.90;;;2.87;;
5054;SDS011;13829;48.990;8.346;2023-08-06T00:11:43;4.40;;;3.00;;
5054;SDS011;13829;48.990;8.346;2023-08-06T00:14:11;3.43;;;2.77;;
5054;SDS011;13829;48.990;8.346;2023-08-06T00:16:40;4.20;;;2.90;;
5054;SDS011;13829;48.990;8.346;2023-08-06T00:19:09;3.77;;;2.70;;
5054;SDS011;13829;48.990;8.346;2023-08-06T00:21:36;3.27;;;2.60;;
5054;SDS011;13829;48.990;8.346;2023-08-06T00:24:03;3.93;;;2.90;;
5054;SDS011;13829;48.990;8.346;2023-08-06T00:26:30;3.50;;;2.87;;
5054;SDS011;13829;48.990;8.346;2023-08-06T00:28:59;5.30;;;3.27;;
5054;SDS011;13829;48.990;8.346;2023-08-06T00:31:26;4.90;;;2.83;;
5054;SDS011;13829;48.990;8.346;2023-08-06T00:33:53;4.50;;;2.60;;
5054;SDS011;13829;48.990;8.346;2023-08-06T00:36:20;4.27;;;2.90;;
5054;SDS011;13829;48.990;8.346;2023-08-06T00:38:47;3.40;;;2.97;;
5054;SDS011;13829;48.990;8.346;2023-08-06T00:41:13;4.53;;;2.80;;
5054;SDS011;13829;48.990;8.346;2023-08-06T00:43:41;4.03;;;2.70;;
5054;SDS011;13829;48.990;8.346;2023-08-06T00:46:09;4.57;;;2.93;;
5054;SDS011;13829;48.990;8.346;2023-08-06T00:48:36;4.70;;;2.77;;
5054;SDS011;13829;48.990;8.346;2023-08-06T00:51:03;4.23;;;2.53;;
5054;SDS011;13829;48.990;8.346;2023-08-06T00:53:31;3.50;;;2.80;;
5054;SDS011;13829;48.990;8.346;2023-08-06T00:55:58;3.93;;;2.60;;
5054;SDS011;13829;48.990;8.346;2023-08-06T00:58:25;3.80;;;2.90;;
5054;SDS011;13829;48.990;8.346;2023-08-06T01:00:52;3.63;;;2.70;;
5054;SDS011;13829;48.990;8.346;2023-08-06T01:03:21;3.50;;;3.00;;
5054;SDS011;13829;48.990;8.346;2023-08-06T01:05:48;4.97;;;2.90;;
5054;SDS011;13829;48.990;8.346;2023-08-06T01:08:19;6.13;;;2.67;;
5054;SDS011;13829;48.990;8.346;2023-08-06T01:11:05;3.60;;;2.80;;
5054;SDS011;13829;48.990;8.346;2023-08-06T01:13:48;4.50;;;3.40;;
5054;SDS011;13829;48.990;8.346;2023-08-06T01:16:20;2.77;;;2.57;;
5054;SDS011;13829;48.990;8.346;2023-08-06T01:18:51;5.60;;;3.00;;
5054;SDS011;13829;48.990;8.346;2023-08-06T01:21:19;2.90;;;2.60;;
5054;SDS011;13829;48.990;8.346;2023-08-06T01:23:46;4.43;;;2.77;;
5054;SDS011;13829;48.990;8.346;2023-08-06T01:26:14;4.50;;;2.70;;
5054;SDS011;13829;48.990;8.346;2023-08-06T01:28:52;4.27;;;2.27;;
5054;SDS011;13829;48.990;8.346;2023-08-06T01:31:30;3.50;;;2.53;;
5054;SDS011;13829;48.990;8.346;2023-08-06T01:34:03;6.27;;;2.43;;
5054;SDS011;13829;48.990;8.346;2023-08-06T01:36:48;4.90;;;2.50;;
5054;SDS011;13829;48.990;8.346;2023-08-06T01:39:16;2.67;;;1.97;;
5054;SDS011;13829;48.990;8.346;2023-08-06T01:41:45;3.00;;;2.07;;
5054;SDS011;13829;48.990;8.346;2023-08-06T01:44:12;4.07;;;2.57;;
5054;SDS011;13829;48.990;8.346;2023-08-06T01:46:40;3.27;;;2.20;;
5054;SDS011;13829;48.990;8.346;2023-08-06T01:49:07;4.77;;;2.23;;
5054;SDS011;13829;48.990;8.346;2023-08-06T01:51:34;4.53;;;2.30;;
5054;SDS011;13829;48.990;8.346;2023-08-06T01:54:02;6.13;;;2.40;;
5054;SDS011;13829;48.990;8.346;2023-08-06T01:56:29;4.80;;;2.47;;
5054;SDS011;13829;48.990;8.346;2023-08-06T01:58:56;4.13;;;2.50;;
5054;SDS011;13829;48.990;8.346;2023-08-06T02:01:23;3.80;;;2.30;;
5054;SDS011;13829;48.990;8.346;2023-08-06T02:03:50;5.47;;;2.63;;
5054;SDS011;13829;48.990;8.346;2023-08-06T02:06:17;5.93;;;2.70;;
5054;SDS011;13829;48.990;8.346;2023-08-06T02:08:44;3.53;;;2.23;;
5054;SDS011;13829;48.990;8.346;2023-08-06T02:11:12;5.27;;;2.27;;
5054;SDS011;13829;48.990;8.346;2023-08-06T02:13:39;4.77;;;2.50;;
5054;SDS011;13829;48.990;8.346;2023-08-06T02:16:06;3.37;;;2.57;;
5054;SDS011;13829;48.990;8.346;2023-08-06T02:18:34;2.57;;;2.33;;
5054;SDS011;13829;48.990;8.346;2023-08-06T02:21:01;4.93;;;2.70;;
5054;SDS011;13829;48.990;8.346;2023-08-06T02:23:28;4.23;;;2.30;;
5054;SDS011;13829;48.990;8.346;2023-08-06T02:25:58;5.17;;;2.77;;
5054;SDS011;13829;48.990;8.346;2023-08-06T02:28:27;3.97;;;2.57;;
5054;SDS011;13829;48.990;8.346;2023-08-06T02:30:54;3.10;;;2.53;;
5054;SDS011;13829;48.990;8.346;2023-08-06T02:33:21;3.87;;;2.70;;
5054;SDS011;13829;48.990;8.346;2023-08-06T02:35:48;4.43;;;2.60;;
5054;SDS011;13829;48.990;8.346;2023-08-06T02:38:15;3.70;;;2.60;;
5054;SDS011;13829;48.990;8.346;2023-08-06T02:40:43;3.57;;;2.40;;
5054;SDS011;13829;48.990;8.346;2023-08-06T02:43:10;4.80;;;2.70;;
5054;SDS011;13829;48.990;8.346;2023-08-06T02:45:39;2.93;;;2.30;;
5054;SDS011;13829;48.990;8.346;2023-08-06T02:48:06;6.47;;;2.70;;
5054;SDS011;13829;48.990;8.346;2023-08-06T02:50:37;4.57;;;2.93;;
5054;SDS011;13829;48.990;8.346;2023-08-06T02:53:05;4.97;;;2.67;;
5054;SDS011;13829;48.990;8.346;2023-08-06T02:55:32;4.50;;;2.77;;
5054;SDS011;13829;48.990;8.346;2023-08-06T02:57:59;4.50;;;2.40;;
5054;SDS011;13829;48.990;8.346;2023-08-06T03:00:26;6.93;;;2.17;;
5054;SDS011;13829;48.990;8.346;2023-08-06T03:02:55;3.83;;;2.27;;
5054;SDS011;13829;48.990;8.346;2023-08-06T03:05:22;5.00;;;2.87;;
5054;SDS011;13829;48.990;8.346;2023-08-06T03:07:49;4.23;;;2.27;;
5054;SDS011;13829;48.990;8.346;2023-08-06T03:10:15;4.83;;;2.50;;
5054;SDS011;13829;48.990;8.346;2023-08-06T03:12:42;4.27;;;2.50;;
5054;SDS011;13829;48.990;8.346;2023-08-06T03:15:09;5.53;;;2.43;;
5054;SDS011;13829;48.990;8.346;2023-08-06T03:17:36;3.67;;;2.40;;
5054;SDS011;13829;48.990;8.346;2023-08-06T03:20:06;3.80;;;2.53;;
5054;SDS011;13829;48.990;8.346;2023-08-06T03:22:33;6.50;;;2.60;;
5054;SDS011;13829;48.990;8.346;2023-08-06T03:25:00;5.93;;;2.87;;
5054;SDS011;13829;48.990;8.346;2023-08-06T03:27:27;3.63;;;2.23;;
5054;SDS011;13829;48.990;8.346;2023-08-06T03:29:54;4.80;;;2.10;;
5054;SDS011;13829;48.990;8.346;2023-08-06T03:32:21;4.07;;;2.10;;
5054;SDS011;13829;48.990;8.346;2023-08-06T03:34:48;5.37;;;1.87;;
5054;SDS011;13829;48.990;8.346;2023-08-06T03:37:17;3.23;;;1.80;;
5054;SDS011;13829;48.990;8.346;2023-08-06T03:39:43;3.80;;;1.40;;
5054;SDS011;13829;48.990;8.346;2023-08-06T03:42:10;4.83;;;1.90;;
5054;SDS011;13829;48.990;8.346;2023-08-06T03:44:37;3.10;;;1.73;;
5054;SDS011;13829;48.990;8.346;2023-08-06T03:47:04;2.87;;;1.70;;
5054;SDS011;13829;48.990;8.346;2023-08-06T03:49:31;1.97;;;1.40;;
5054;SDS011;13829;48.990;8.346;2023-08-06T03:51:59;2.47;;;1.37;;
5054;SDS011;13829;48.990;8.346;2023-08-06T03:54:27;5.27;;;1.80;;
5054;SDS011;13829;48.990;8.346;2023-08-06T03:56:55;3.17;;;1.67;;
5054;SDS011;13829;48.990;8.346;2023-08-06T03:59:22;3.03;;;1.67;;
5054;SDS011;13829;48.990;8.346;2023-08-06T04:01:48;3.60;;;1.67;;
5054;SDS011;13829;48.990;8.346;2023-08-06T04:04:15;2.70;;;1.40;;
5054;SDS011;13829;48.990;8.346;2023-08-06T04:06:42;4.07;;;1.80;;
5054;SDS011;13829;48.990;8.346;2023-08-06T04:09:09;4.40;;;1.20;;
5054;SDS011;13829;48.990;8.346;2023-08-06T04:11:37;4.17;;;1.33;;
5054;SDS011;13829;48.990;8.346;2023-08-06T04:14:04;3.20;;;1.00;;
5054;SDS011;13829;48.990;8.346;2023-08-06T04:16:31;4.03;;;1.33;;
5054;SDS011;13829;48.990;8.346;2023-08-06T04:18:58;5.97;;;1.37;;
5054;SDS011;13829;48.990;8.346;2023-08-06T04:21:25;2.80;;;1.20;;
5054;SDS011;13829;48.990;8.346;2023-08-06T04:23:52;6.37;;;1.20;;
5054;SDS011;13829;48.990;8.346;2023-08-06T04:26:19;6.90;;;1.23;;
5054;SDS011;13829;48.990;8.346;2023-08-06T04:28:47;1.93;;;1.10;;
5054;SDS011;13829;48.990;8.346;2023-08-06T04:31:14;3.57;;;1.10;;
5054;SDS011;13829;48.990;8.346;2023-08-06T04:33:41;4.77;;;1.57;;
5054;SDS011;13829;48.990;8.346;2023-08-06T04:36:08;4.03;;;1.40;;
5054;SDS011;13829;48.990;8.346;2023-08-06T04:38:35;3.73;;;1.50;;
5054;SDS011;13829;48.990;8.346;2023-08-06T04:41:03;2.53;;;1.20;;
5054;SDS011;13829;48.990;8.346;2023-08-06T04:43:30;5.33;;;1.07;;
5054;SDS011;13829;48.990;8.346;2023-08-06T04:45:58;3.97;;;1.57;;
5054;SDS011;13829;48.990;8.346;2023-08-06T04:48:25;2.47;;;1.00;;
5054;SDS011;13829;48.990;8.346;2023-08-06T04:50:52;3.43;;;1.27;;
5054;SDS011;13829;48.990;8.346;2023-08-06T04:53:19;2.57;;;1.10;;
5054;SDS011;13829;48.990;8.346;2023-08-06T04:55:46;5.17;;;1.27;;
5054;SDS011;13829;48.990;8.346;2023-08-06T04:58:13;3.00;;;1.20;;
5054;SDS011;13829;48.990;8.346;2023-08-06T05:00:41;5.50;;;1.30;;
5054;SDS011;13829;48.990;8.346;2023-08-06T05:03:09;2.50;;;1.10;;
5054;SDS011;13829;48.990;8.346;2023-08-06T05:05:36;1.90;;;1.30;;
5054;SDS011;13829;48.990;8.346;2023-08-06T05:08:06;3.43;;;1.27;;
5054;SDS011;13829;48.990;8.346;2023-08-06T05:10:33;2.60;;;1.23;;
5054;SDS011;13829;48.990;8.346;2023-08-06T05:13:00;3.23;;;1.33;;
5054;SDS011;13829;48.990;8.346;2023-08-06T05:15:26;3.40;;;1.30;;
5054;SDS011;13829;48.990;8.346;2023-08-06T05:17:53;6.17;;;1.80;;
5054;SDS011;13829;48.990;8.346;2023-08-06T05:20:22;3.23;;;1.80;;
5054;SDS011;13829;48.990;8.346;2023-08-06T05:22:48;3.10;;;1.67;;
5054;SDS011;13829;48.990;8.346;2023-08-06T05:25:16;3.00;;;1.60;;
5054;SDS011;13829;48.990;8.346;2023-08-06T05:27:43;3.90;;;1.60;;
5054;SDS011;13829;48.990;8.346;2023-08-06T05:30:10;3.77;;;1.67;;
5054;SDS011;13829;48.990;8.346;2023-08-06T05:32:37;2.13;;;1.70;;
5054;SDS011;13829;48.990;8.346;2023-08-06T05:35:04;3.50;;;1.40;;
5054;SDS011;13829;48.990;8.346;2023-08-06T05:37:34;5.43;;;1.70;;
5054;SDS011;13829;48.990;8.346;2023-08-06T05:40:00;2.80;;;1.57;;
5054;SDS011;13829;48.990;8.346;2023-08-06T05:42:29;2.73;;;1.33;;
5054;SDS011;13829;48.990;8.346;2023-08-06T05:44:55;3.27;;;1.67;;
5054;SDS011;13829;48.990;8.346;2023-08-06T05:47:22;1.97;;;1.30;;
5054;SDS011;13829;48.990;8.346;2023-08-06T05:49:49;2.67;;;1.50;;
5054;SDS011;13829;48.990;8.346;2023-08-06T05:52:16;4.83;;;1.40;;
5054;SDS011;13829;48.990;8.346;2023-08-06T05:54:44;1.53;;;1.00;;
5054;SDS011;13829;48.990;8.346;2023-08-06T05:57:11;3.10;;;1.20;;
5054;SDS011;13829;48.990;8.346;2023-08-06T05:59:39;1.70;;;1.13;;
5054;SDS011;13829;48.990;8.346;2023-08-06T06:02:06;1.43;;;1.00;;
5054;SDS011;13829;48.990;8.346;2023-08-06T06:04:34;1.73;;;0.90;;
5054;SDS011;13829;48.990;8.346;2023-08-06T06:07:00;4.17;;;0.90;;
5054;SDS011;13829;48.990;8.346;2023-08-06T06:09:27;1.93;;;0.90;;
5054;SDS011;13829;48.990;8.346;2023-08-06T06:11:56;1.20;;;0.80;;
5054;SDS011;13829;48.990;8.346;2023-08-06T06:14:23;2.80;;;1.20;;
5054;SDS011;13829;48.990;8.346;2023-08-06T06:16:49;3.57;;;1.00;;
5054;SDS011;13829;48.990;8.346;2023-08-06T06:19:18;2.17;;;0.50;;
5054;SDS011;13829;48.990;8.346;2023-08-06T06:21:45;2.83;;;0.80;;
5054;SDS011;13829;48.990;8.346;2023-08-06T06:24:12;3.00;;;0.70;;
5054;SDS011;13829;48.990;8.346;2023-08-06T06:26:38;2.17;;;0.80;;
5054;SDS011;13829;48.990;8.346;2023-08-06T06:29:07;1.83;;;0.60;;
5054;SDS011;13829;48.990;8.346;2023-08-06T06:31:34;1.83;;;0.57;;
5054;SDS011;13829;48.990;8.346;2023-08-06T06:34:01;5.50;;;0.70;;
5054;SDS011;13829;48.990;8.346;2023-08-06T06:36:28;1.30;;;0.60;;
5054;SDS011;13829;48.990;8.346;2023-08-06T06:38:54;3.67;;;1.00;;
5054;SDS011;13829;48.990;8.346;2023-08-06T06:41:21;1.90;;;0.73;;
5054;SDS011;13829;48.990;8.346;2023-08-06T06:43:49;1.47;;;0.60;;
5054;SDS011;13829;48.990;8.346;2023-08-06T06:46:17;1.70;;;0.50;;
5054;SDS011;13829;48.990;8.346;2023-08-06T06:48:44;1.93;;;0.80;;
5054;SDS011;13829;48.990;8.346;2023-08-06T06:51:11;2.07;;;0.57;;
5054;SDS011;13829;48.990;8.346;2023-08-06T06:53:38;3.07;;;0.83;;
5054;SDS011;13829;48.990;8.346;2023-08-06T06:56:05;1.57;;;0.60;;
5054;SDS011;13829;48.990;8.346;2023-08-06T06:58:32;2.83;;;0.73;;
5054;SDS011;13829;48.990;8.346;2023-08-06T07:00:59;0.97;;;0.60;;
5054;SDS011;13829;48.990;8.346;2023-08-06T07:03:27;2.30;;;0.80;;
5054;SDS011;13829;48.990;8.346;2023-08-06T07:05:57;1.63;;;0.60;;
5054;SDS011;13829;48.990;8.346;2023-08-06T07:08:25;0.70;;;0.50;;
5054;SDS011;13829;48.990;8.346;2023-08-06T07:10:59;0.80;;;0.60;;
5054;SDS011;13829;48.990;8.346;2023-08-06T07:13:27;0.87;;;0.53;;
5054;SDS011;13829;48.990;8.346;2023-08-06T07:15:54;3.77;;;0.73;;
5054;SDS011;13829;48.990;8.346;2023-08-06T07:18:22;0.40;;;0.40;;
5054;SDS011;13829;48.990;8.346;2023-08-06T07:20:51;1.73;;;0.67;;
5054;SDS011;13829;48.990;8.346;2023-08-06T07:23:20;1.80;;;0.70;;
5054;SDS011;13829;48.990;8.346;2023-08-06T07:25:48;2.37;;;0.70;;
5054;SDS011;13829;48.990;8.346;2023-08-06T07:28:16;0.90;;;0.60;;
5054;SDS011;13829;48.990;8.346;2023-08-06T07:30:44;1.60;;;0.50;;
5054;SDS011;13829;48.990;8.346;2023-08-06T07:33:11;2.20;;;0.63;;
5054;SDS011;13829;48.990;8.346;2023-08-06T07:35:38;1.77;;;0.77;;
5054;SDS011;13829;48.990;8.346;2023-08-06T07:38:07;1.23;;;0.57;;
5054;SDS011;13829;48.990;8.346;2023-08-06T07:40:35;2.30;;;0.87;;
5054;SDS011;13829;48.990;8.346;2023-08-06T07:43:02;1.70;;;0.60;;
5054;SDS011;13829;48.990;8.346;2023-08-06T07:45:32;3.17;;;0.80;;
5054;SDS011;13829;48.990;8.346;2023-08-06T07:48:00;1.13;;;0.90;;
5054;SDS011;13829;48.990;8.346;2023-08-06T07:50:28;1.97;;;0.90;;
5054;SDS011;13829;48.990;8.346;2023-08-06T07:52:55;1.10;;;0.63;;
5054;SDS011;13829;48.990;8.346;2023-08-06T07:55:24;4.37;;;0.93;;
5054;SDS011;13829;48.990;8.346;2023-08-06T07:57:52;2.07;;;0.90;;
5054;SDS011;13829;48.990;8.346;2023-08-06T08:00:19;1.00;;;0.53;;
5054;SDS011;13829;48.990;8.346;2023-08-06T08:02:46;1.50;;;0.87;;
5054;SDS011;13829;48.990;8.346;2023-08-06T08:05:13;2.87;;;0.90;;
5054;SDS011;13829;48.990;8.346;2023-08-06T08:07:40;2.80;;;0.80;;
5054;SDS011;13829;48.990;8.346;2023-08-06T08:10:07;1.73;;;0.93;;
5054;SDS011;13829;48.990;8.346;2023-08-06T08:12:36;1.23;;;0.97;;
5054;SDS011;13829;48.990;8.346;2023-08-06T08:15:03;4.90;;;1.23;;
5054;SDS011;13829;48.990;8.346;2023-08-06T08:17:31;2.60;;;0.90;;
5054;SDS011;13829;48.990;8.346;2023-08-06T08:19:59;1.13;;;0.50;;
5054;SDS011;13829;48.990;8.346;2023-08-06T08:22:26;1.00;;;0.50;;
5054;SDS011;13829;48.990;8.346;2023-08-06T08:24:53;3.33;;;0.80;;
5054;SDS011;13829;48.990;8.346;2023-08-06T08:27:20;1.10;;;0.60;;
5054;SDS011;13829;48.990;8.346;2023-08-06T08:29:48;2.60;;;0.83;;
5054;SDS011;13829;48.990;8.346;2023-08-06T08:32:15;1.00;;;0.67;;
5054;SDS011;13829;48.990;8.346;2023-08-06T08:34:42;0.70;;;0.50;;
5054;SDS011;13829;48.990;8.346;2023-08-06T08:37:09;2.23;;;0.80;;
5054;SDS011;13829;48.990;8.346;2023-08-06T08:39:36;0.70;;;0.60;;
5054;SDS011;13829;48.990;8.346;2023-08-06T08:42:03;2.17;;;0.70;;
5054;SDS011;13829;48.990;8.346;2023-08-06T08:44:32;1.87;;;0.60;;
5054;SDS011;13829;48.990;8.346;2023-08-06T08:47:02;4.50;;;1.00;;
5054;SDS011;13829;48.990;8.346;2023-08-06T08:49:30;2.87;;;1.00;;
5054;SDS011;13829;48.990;8.346;2023-08-06T08:51:58;2.30;;;0.83;;
5054;SDS011;13829;48.990;8.346;2023-08-06T08:54:28;2.00;;;0.60;;
5054;SDS011;13829;48.990;8.346;2023-08-06T08:56:57;0.80;;;0.57;;
5054;SDS011;13829;48.990;8.346;2023-08-06T08:59:24;3.83;;;0.70;;
5054;SDS011;13829;48.990;8.346;2023-08-06T09:01:54;1.33;;;0.80;;
5054;SDS011;13829;48.990;8.346;2023-08-06T09:04:24;1.90;;;0.70;;
5054;SDS011;13829;48.990;8.346;2023-08-06T09:06:53;2.53;;;0.83;;
5054;SDS011;13829;48.990;8.346;2023-08-06T09:09:25;1.17;;;0.70;;
5054;SDS011;13829;48.990;8.346;2023-08-06T09:11:59;1.20;;;0.67;;
5054;SDS011;13829;48.990;8.346;2023-08-06T09:14:31;1.83;;;0.73;;
5054;SDS011;13829;48.990;8.346;2023-08-06T09:16:58;2.37;;;0.63;;
5054;SDS011;13829;48.990;8.346;2023-08-06T09:19:27;0.50;;;0.50;;
5054;SDS011;13829;48.990;8.346;2023-08-06T09:21:55;0.70;;;0.60;;
5054;SDS011;13829;48.990;8.346;2023-08-06T09:24:22;1.33;;;0.70;;
5054;SDS011;13829;48.990;8.346;2023-08-06T09:26:51;1.53;;;0.50;;
5054;SDS011;13829;48.990;8.346;2023-08-06T09:29:19;1.93;;;0.63;;
5054;SDS011;13829;48.990;8.346;2023-08-06T09:31:47;0.57;;;0.50;;
5054;SDS011;13829;48.990;8.346;2023-08-06T09:34:18;1.43;;;0.80;;
5054;SDS011;13829;48.990;8.346;2023-08-06T09:36:48;0.60;;;0.50;;
5054;SDS011;13829;48.990;8.346;2023-08-06T09:39:17;0.90;;;0.70;;
5054;SDS011;13829;48.990;8.346;2023-08-06T09:41:46;0.90;;;0.50;;
5054;SDS011;13829;48.990;8.346;2023-08-06T09:44:17;0.30;;;0.30;;
5054;SDS011;13829;48.990;8.346;2023-08-06T09:46:50;1.13;;;0.40;;
5054;SDS011;13829;48.990;8.346;2023-08-06T09:49:19;0.50;;;0.40;;
5054;SDS011;13829;48.990;8.346;2023-08-06T09:51:49;0.60;;;0.50;;
5054;SDS011;13829;48.990;8.346;2023-08-06T09:54:20;0.57;;;0.43;;
5054;SDS011;13829;48.990;8.346;2023-08-06T09:56:48;0.93;;;0.80;;
5054;SDS011;13829;48.990;8.346;2023-08-06T09:59:17;0.33;;;0.33;;
5054;SDS011;13829;48.990;8.346;2023-08-06T10:01:45;1.17;;;0.57;;
5054;SDS011;13829;48.990;8.346;2023-08-06T10:04:13;1.13;;;0.40;;
5054;SDS011;13829;48.990;8.346;2023-08-06T10:06:43;0.43;;;0.40;;
5054;SDS011;13829;48.990;8.346;2023-08-06T10:09:15;0.50;;;0.43;;
5054;SDS011;13829;48.990;8.346;2023-08-06T10:11:43;0.80;;;0.57;;
5054;SDS011;13829;48.990;8.346;2023-08-06T10:14:18;0.70;;;0.57;;
5054;SDS011;13829;48.990;8.346;2023-08-06T10:16:51;1.03;;;0.60;;
5054;SDS011;13829;48.990;8.346;2023-08-06T10:19:20;0.80;;;0.50;;
5054;SDS011;13829;48.990;8.346;2023-08-06T10:24:46;0.60;;;0.60;;
5054;SDS011;13829;48.990;8.346;2023-08-06T10:27:19;1.00;;;0.80;;
5054;SDS011;13829;48.990;8.346;2023-08-06T10:29:48;0.73;;;0.70;;
5054;SDS011;13829;48.990;8.346;2023-08-06T10:32:15;1.67;;;1.20;;
5054;SDS011;13829;48.990;8.346;2023-08-06T10:34:54;2.10;;;0.97;;
5054;SDS011;13829;48.990;8.346;2023-08-06T10:37:22;2.23;;;1.13;;
5054;SDS011;13829;48.990;8.346;2023-08-06T10:39:51;1.47;;;1.17;;
5054;SDS011;13829;48.990;8.346;2023-08-06T10:42:19;1.67;;;1.20;;
5054;SDS011;13829;48.990;8.346;2023-08-06T10:45:13;2.20;;;1.00;;
5054;SDS011;13829;48.990;8.346;2023-08-06T10:47:42;2.30;;;1.50;;
5054;SDS011;13829;48.990;8.346;2023-08-06T10:50:11;2.20;;;1.20;;
5054;SDS011;13829;48.990;8.346;2023-08-06T10:52:41;2.53;;;1.40;;
5054;SDS011;13829;48.990;8.346;2023-08-06T10:55:10;1.83;;;1.63;;
5054;SDS011;13829;48.990;8.346;2023-08-06T10:57:37;2.33;;;1.40;;
5054;SDS011;13829;48.990;8.346;2023-08-06T11:00:05;2.17;;;1.40;;
5054;SDS011;13829;48.990;8.346;2023-08-06T11:02:34;2.53;;;1.40;;
5054;SDS011;13829;48.990;8.346;2023-08-06T11:05:05;9.10;;;2.10;;
5054;SDS011;13829;48.990;8.346;2023-08-06T11:07:33;3.77;;;1.70;;
5054;SDS011;13829;48.990;8.346;2023-08-06T11:10:02;3.03;;;1.70;;
5054;SDS011;13829;48.990;8.346;2023-08-06T11:12:32;2.73;;;1.77;;
5054;SDS011;13829;48.990;8.346;2023-08-06T11:15:00;2.13;;;1.70;;
5054;SDS011;13829;48.990;8.346;2023-08-06T11:17:29;2.47;;;1.90;;
5054;SDS011;13829;48.990;8.346;2023-08-06T11:19:59;2.93;;;1.70;;
5054;SDS011;13829;48.990;8.346;2023-08-06T11:22:26;2.63;;;2.03;;
5054;SDS011;13829;48.990;8.346;2023-08-06T11:24:53;2.47;;;1.70;;
5054;SDS011;13829;48.990;8.346;2023-08-06T11:27:21;2.13;;;1.73;;
5054;SDS011;13829;48.990;8.346;2023-08-06T11:29:49;2.63;;;1.50;;
5054;SDS011;13829;48.990;8.346;2023-08-06T11:32:16;3.97;;;1.93;;
5054;SDS011;13829;48.990;8.346;2023-08-06T11:34:43;2.63;;;2.10;;
5054;SDS011;13829;48.990;8.346;2023-08-06T11:37:10;3.93;;;2.00;;
5054;SDS011;13829;48.990;8.346;2023-08-06T11:39:38;4.37;;;2.40;;
5054;SDS011;13829;48.990;8.346;2023-08-06T11:42:10;3.70;;;2.33;;
5054;SDS011;13829;48.990;8.346;2023-08-06T11:44:38;3.77;;;2.60;;
5054;SDS011;13829;48.990;8.346;2023-08-06T11:47:12;3.17;;;1.97;;
5054;SDS011;13829;48.990;8.346;2023-08-06T11:49:42;3.70;;;2.17;;
5054;SDS011;13829;48.990;8.346;2023-08-06T11:52:13;4.90;;;2.13;;
5054;SDS011;13829;48.990;8.346;2023-08-06T11:54:44;4.40;;;2.17;;
5054;SDS011;13829;48.990;8.346;2023-08-06T11:57:12;4.43;;;2.00;;
5054;SDS011;13829;48.990;8.346;2023-08-06T11:59:39;3.73;;;2.37;;
5054;SDS011;13829;48.990;8.346;2023-08-06T12:02:07;4.90;;;2.50;;
5054;SDS011;13829;48.990;8.346;2023-08-06T12:04:59;3.20;;;2.00;;
5054;SDS011;13829;48.990;8.346;2023-08-06T12:07:30;4.07;;;2.17;;
5054;SDS011;13829;48.990;8.346;2023-08-06T12:09:58;2.57;;;1.83;;
5054;SDS011;13829;48.990;8.346;2023-08-06T12:12:25;3.13;;;2.07;;
5054;SDS011;13829;48.990;8.346;2023-08-06T12:14:53;4.87;;;1.90;;
5054;SDS011;13829;48.990;8.346;2023-08-06T12:17:20;3.30;;;1.97;;
5054;SDS011;13829;48.990;8.346;2023-08-06T12:19:48;2.13;;;1.67;;
5054;SDS011;13829;48.990;8.346;2023-08-06T12:22:16;3.83;;;1.90;;
5054;SDS011;13829;48.990;8.346;2023-08-06T12:24:43;2.20;;;1.50;;
5054;SDS011;13829;48.990;8.346;2023-08-06T12:27:12;4.10;;;1.87;;
5054;SDS011;13829;48.990;8.346;2023-08-06T12:29:43;3.20;;;1.47;;
5054;SDS011;13829;48.990;8.346;2023-08-06T12:32:13;2.90;;;1.70;;
5054;SDS011;13829;48.990;8.346;2023-08-06T12:34:41;2.80;;;1.50;;
5054;SDS011;13829;48.990;8.346;2023-08-06T12:37:08;2.80;;;1.80;;
5054;SDS011;13829;48.990;8.346;2023-08-06T12:39:37;2.13;;;1.73;;
5054;SDS011;13829;48.990;8.346;2023-08-06T12:42:04;3.03;;;1.73;;
5054;SDS011;13829;48.990;8.346;2023-08-06T12:44:32;2.57;;;1.40;;
5054;SDS011;13829;48.990;8.346;2023-08-06T12:46:59;4.07;;;1.50;;
5054;SDS011;13829;48.990;8.346;2023-08-06T12:49:26;3.27;;;1.57;;
5054;SDS011;13829;48.990;8.346;2023-08-06T12:51:53;3.23;;;1.70;;
5054;SDS011;13829;48.990;8.346;2023-08-06T12:54:22;4.47;;;1.30;;
5054;SDS011;13829;48.990;8.346;2023-08-06T12:56:50;1.67;;;1.20;;
5054;SDS011;13829;48.990;8.346;2023-08-06T12:59:17;2.77;;;1.00;;
5054;SDS011;13829;48.990;8.346;2023-08-06T13:01:45;1.03;;;0.90;;
5054;SDS011;13829;48.990;8.346;2023-08-06T13:04:13;1.33;;;0.80;;
5054;SDS011;13829;48.990;8.346;2023-08-06T13:06:40;0.87;;;0.67;;
5054;SDS011;13829;48.990;8.346;2023-08-06T13:09:07;0.67;;;0.60;;
5054;SDS011;13829;48.990;8.346;2023-08-06T13:11:35;2.77;;;0.80;;
5054;SDS011;13829;48.990;8.346;2023-08-06T13:14:07;1.10;;;0.70;;
5054;SDS011;13829;48.990;8.346;2023-08-06T13:16:36;1.10;;;0.70;;
5054;SDS011;13829;48.990;8.346;2023-08-06T13:19:05;1.83;;;0.87;;
5054;SDS011;13829;48.990;8.346;2023-08-06T13:21:34;1.50;;;0.80;;
5054;SDS011;13829;48.990;8.346;2023-08-06T13:24:17;0.90;;;0.70;;
5054;SDS011;13829;48.990;8.346;2023-08-06T13:26:45;2.03;;;0.77;;
5054;SDS011;13829;48.990;8.346;2023-08-06T13:29:13;2.20;;;0.60;;
5054;SDS011;13829;48.990;8.346;2023-08-06T13:31:40;0.93;;;0.70;;
5054;SDS011;13829;48.990;8.346;2023-08-06T13:34:07;1.53;;;1.00;;
5054;SDS011;13829;48.990;8.346;2023-08-06T13:36:34;0.88;;;0.60;;
5054;SDS011;13829;48.990;8.346;2023-08-06T13:39:01;1.53;;;0.60;;
5054;SDS011;13829;48.990;8.346;2023-08-06T13:41:30;4.97;;;0.87;;
5054;SDS011;13829;48.990;8.346;2023-08-06T13:43:57;0.90;;;0.80;;
5054;SDS011;13829;48.990;8.346;2023-08-06T13:46:25;2.05;;;0.70;;
5054;SDS011;13829;48.990;8.346;2023-08-06T13:48:52;0.98;;;0.70;;
5054;SDS011;13829;48.990;8.346;2023-08-06T13:51:19;0.85;;;0.73;;
5054;SDS011;13829;48.990;8.346;2023-08-06T13:53:46;1.67;;;0.90;;
5054;SDS011;13829;48.990;8.346;2023-08-06T13:56:13;1.17;;;0.70;;
5054;SDS011;13829;48.990;8.346;2023-08-06T13:58:42;2.20;;;1.10;;
5054;SDS011;13829;48.990;8.346;2023-08-06T14:01:10;2.23;;;0.90;;
5054;SDS011;13829;48.990;8.346;2023-08-06T14:03:40;1.63;;;0.85;;
5054;SDS011;13829;48.990;8.346;2023-08-06T14:06:07;2.63;;;0.88;;
5054;SDS011;13829;48.990;8.346;2023-08-06T14:08:34;1.17;;;0.70;;
5054;SDS011;13829;48.990;8.346;2023-08-06T14:11:01;2.33;;;0.93;;
5054;SDS011;13829;48.990;8.346;2023-08-06T14:13:28;1.27;;;0.60;;
5054;SDS011;13829;48.990;8.346;2023-08-06T14:15:56;0.80;;;0.70;;
5054;SDS011;13829;48.990;8.346;2023-08-06T14:18:22;2.55;;;0.90;;
5054;SDS011;13829;48.990;8.346;2023-08-06T14:20:51;0.80;;;0.80;;
5054;SDS011;13829;48.990;8.346;2023-08-06T14:23:18;1.00;;;0.57;;
5054;SDS011;13829;48.990;8.346;2023-08-06T14:25:45;1.42;;;0.60;;
5054;SDS011;13829;48.990;8.346;2023-08-06T14:28:12;0.85;;;0.68;;
5054;SDS011;13829;48.990;8.346;2023-08-06T14:30:39;2.83;;;1.00;;
5054;SDS011;13829;48.990;8.346;2023-08-06T14:33:06;0.95;;;0.77;;
5054;SDS011;13829;48.990;8.346;2023-08-06T14:35:33;1.80;;;1.00;;
5054;SDS011;13829;48.990;8.346;2023-08-06T14:38:01;2.57;;;0.97;;
5054;SDS011;13829;48.990;8.346;2023-08-06T14:40:28;2.65;;;0.90;;
5054;SDS011;13829;48.990;8.346;2023-08-06T14:42:59;1.30;;;0.75;;
5054;SDS011;13829;48.990;8.346;2023-08-06T14:45:26;3.20;;;0.90;;
5054;SDS011;13829;48.990;8.346;2023-08-06T14:47:53;2.40;;;1.08;;
5054;SDS011;13829;48.990;8.346;2023-08-06T14:50:20;2.63;;;0.70;;
5054;SDS011;13829;48.990;8.346;2023-08-06T14:52:47;1.20;;;0.93;;
5054;SDS011;13829;48.990;8.346;2023-08-06T14:55:22;1.90;;;0.90;;
5054;SDS011;13829;48.990;8.346;2023-08-06T14:57:50;1.52;;;0.90;;
5054;SDS011;13829;48.990;8.346;2023-08-06T15:00:17;1.45;;;0.88;;
5054;SDS011;13829;48.990;8.346;2023-08-06T15:02:45;2.70;;;0.90;;
5054;SDS011;13829;48.990;8.346;2023-08-06T15:05:12;1.15;;;0.65;;
5054;SDS011;13829;48.990;8.346;2023-08-06T15:07:39;1.13;;;0.82;;
5054;SDS011;13829;48.990;8.346;2023-08-06T15:10:07;1.77;;;0.70;;